Weather at San Antonio Del Tachira Airport

Public forecast

Using degrees Celsius for public forecast. Weather courtesy of forecast.io.

Current aviation weather report (METAR) for San Antonio Del Tachira Airport

Report is more than 6 hours old.

Retrieved 2020/10/23 22:00 UTC (1 month ago):

SVSA 232200Z 0Z 2400/2500 06002KT 9999 SCT013 TX35/2419Z TN24/2408Z TEMPO 2400/2404 27004KT 9000 DZ SCT013

Aviation forecast (TAF) for San Antonio Del Tachira Airport

Forecast is more than 12 hours old.

Retrieved 2020/11/30 12:00 UTC (14 hours ago):

TAF SVSA 301000Z 3012/0112 36003KT 9999 SCT016 TX33/3019Z TN25/3008Z PROB30 TEMPO 3012/3016 31004KT 9000 DZ BKN016